createdAt,value
2022-10-18T00:02:33.112Z,6.43
2022-10-18T00:05:35.648Z,6.37
2022-10-18T00:08:38.884Z,7.97
2022-10-18T00:11:41.144Z,6.03
2022-10-18T00:14:43.406Z,8.55
2022-10-18T00:17:45.547Z,7.10
2022-10-18T00:20:59.149Z,6.20
2022-10-18T00:24:01.302Z,5.57
2022-10-18T00:27:03.496Z,8.65
2022-10-18T00:30:06.031Z,7.68
2022-10-18T00:33:08.248Z,9.98
2022-10-18T00:36:11.294Z,5.40
2022-10-18T00:39:16.780Z,4.93
2022-10-18T00:42:20.953Z,6.03
2022-10-18T00:45:24.491Z,5.60
2022-10-18T00:48:26.685Z,5.53
2022-10-18T00:51:32.919Z,5.50
2022-10-18T00:54:38.304Z,6.97
2022-10-18T00:57:42.356Z,6.82
2022-10-18T01:00:44.620Z,5.55
2022-10-18T01:03:46.777Z,5.15
2022-10-18T01:07:07.724Z,5.07
2022-10-18T01:10:27.397Z,6.15
2022-10-18T01:13:33.741Z,7.60
2022-10-18T01:16:56.418Z,5.10
2022-10-18T01:20:17.541Z,5.12
2022-10-18T01:23:33.537Z,6.00
2022-10-18T01:27:00.025Z,6.37
2022-10-18T01:30:28.160Z,5.10
2022-10-18T01:33:39.081Z,5.50
2022-10-18T01:36:44.521Z,6.18
2022-10-18T01:39:47.989Z,6.60
2022-10-18T01:42:50.474Z,8.60
2022-10-18T01:45:53.897Z,7.85
2022-10-18T01:48:56.483Z,8.73
2022-10-18T01:51:59.282Z,7.75
2022-10-18T01:55:01.963Z,7.18
2022-10-18T01:58:23.231Z,7.35
2022-10-18T02:01:31.200Z,6.82
2022-10-18T02:04:44.532Z,6.53
2022-10-18T02:07:55.394Z,5.90
2022-10-18T02:11:13.466Z,7.03
2022-10-18T02:14:16.579Z,5.40
2022-10-18T02:17:20.947Z,6.05
2022-10-18T02:20:25.549Z,5.47
2022-10-18T02:23:27.826Z,5.80
2022-10-18T02:26:30.018Z,5.82
2022-10-18T02:29:32.575Z,7.03
2022-10-18T02:32:41.877Z,7.07
2022-10-18T02:35:54.405Z,8.45
2022-10-18T02:39:01.916Z,8.48
2022-10-18T02:42:08.893Z,8.85
2022-10-18T02:45:11.193Z,4.97
2022-10-18T02:48:13.325Z,6.37
2022-10-18T02:51:15.895Z,11.68
2022-10-18T02:54:18.035Z,7.78
2022-10-18T02:57:20.221Z,6.32
2022-10-18T03:00:22.412Z,7.93
2022-10-18T03:03:24.607Z,5.78
2022-10-18T03:06:26.761Z,6.30
2022-10-18T03:09:28.896Z,8.27
2022-10-18T03:12:31.022Z,6.32
2022-10-18T03:15:33.177Z,10.15
2022-10-18T03:18:35.325Z,7.35
2022-10-18T03:21:37.477Z,8.82
2022-10-18T03:24:39.681Z,9.80
2022-10-18T03:27:41.834Z,8.82
2022-10-18T03:30:43.961Z,7.65
2022-10-18T03:33:46.638Z,15.98
2022-10-18T03:36:48.773Z,10.13
2022-10-18T03:39:50.958Z,14.82
2022-10-18T03:42:53.078Z,8.07
2022-10-18T03:45:55.424Z,8.77
2022-10-18T03:48:57.553Z,7.15
2022-10-18T03:51:59.694Z,7.95
2022-10-18T03:55:01.892Z,6.22
2022-10-18T03:58:04.282Z,7.70
2022-10-18T04:01:07.067Z,7.78
2022-10-18T04:04:09.188Z,10.20
2022-10-18T04:07:11.338Z,8.00
2022-10-18T04:10:13.538Z,8.38
2022-10-18T04:13:15.686Z,8.68
2022-10-18T04:16:17.816Z,10.18
2022-10-18T04:19:20.002Z,12.00
2022-10-18T04:22:22.226Z,8.70
2022-10-18T04:25:25.310Z,9.75
2022-10-18T04:28:27.471Z,10.95
2022-10-18T04:31:29.758Z,13.32
2022-10-18T04:34:31.936Z,9.13
2022-10-18T04:37:34.624Z,12.20
2022-10-18T04:40:37.572Z,14.10
2022-10-18T04:43:39.774Z,7.40
2022-10-18T04:46:41.948Z,15.00
2022-10-18T04:49:44.533Z,15.10
2022-10-18T04:52:46.747Z,16.37
2022-10-18T04:55:49.936Z,19.83
2022-10-18T04:58:52.117Z,21.02
2022-10-18T05:01:54.371Z,19.33
2022-10-18T05:04:56.575Z,24.83
2022-10-18T05:07:58.748Z,14.80
2022-10-18T05:11:01.130Z,17.02
2022-10-18T05:14:03.750Z,16.08
2022-10-18T05:17:05.881Z,17.77
2022-10-18T05:20:08.475Z,17.45
2022-10-18T05:23:13.651Z,16.95
2022-10-18T05:26:15.849Z,14.25
2022-10-18T05:29:18.066Z,17.62
2022-10-18T05:32:20.426Z,17.08
2022-10-18T05:35:22.558Z,21.08
2022-10-18T05:38:24.824Z,17.67
2022-10-18T05:41:26.998Z,12.48
2022-10-18T05:44:29.205Z,16.60
2022-10-18T05:47:31.426Z,16.87
2022-10-18T05:50:36.697Z,14.27
2022-10-18T05:53:41.769Z,15.43
2022-10-18T05:56:43.913Z,13.48
2022-10-18T05:59:46.217Z,11.12
2022-10-18T06:02:48.370Z,17.90
2022-10-18T06:05:50.568Z,9.43
2022-10-18T06:08:52.699Z,12.80
2022-10-18T06:11:55.488Z,14.57
2022-10-18T06:14:57.610Z,9.48
2022-10-18T06:17:59.817Z,11.68
2022-10-18T06:21:02.054Z,10.07
2022-10-18T06:24:04.864Z,9.73
2022-10-18T06:27:09.353Z,14.48
2022-10-18T06:30:11.910Z,11.50
2022-10-18T06:33:14.112Z,13.45
2022-10-18T06:36:18.134Z,13.18
2022-10-18T06:39:20.275Z,10.75
2022-10-18T06:42:22.764Z,13.27
2022-10-18T06:45:24.958Z,12.52
2022-10-18T06:48:27.855Z,12.70
2022-10-18T06:51:30.030Z,14.87
2022-10-18T06:54:32.215Z,10.38
2022-10-18T06:57:34.714Z,8.82
2022-10-18T07:00:36.859Z,10.05
2022-10-18T07:03:39.208Z,7.15
2022-10-18T07:06:41.331Z,11.43
2022-10-18T07:09:46.076Z,7.68
2022-10-18T07:12:48.215Z,14.48
2022-10-18T07:16:14.315Z,10.80
2022-10-18T07:19:19.599Z,6.97
2022-10-18T07:22:21.781Z,7.05
2022-10-18T07:25:25.920Z,5.80
2022-10-18T07:28:30.759Z,8.77
2022-10-18T07:31:33.498Z,7.30
2022-10-18T07:34:35.762Z,8.68
2022-10-18T07:37:37.928Z,6.37
2022-10-18T07:40:40.058Z,8.43
2022-10-18T07:43:44.439Z,7.30
2022-10-18T07:46:46.595Z,11.70
2022-10-18T07:49:48.840Z,8.38
2022-10-18T07:52:50.973Z,5.90
2022-10-18T07:55:57.256Z,8.18
2022-10-18T07:58:59.441Z,9.57
2022-10-18T08:02:01.595Z,5.00
2022-10-18T08:05:03.963Z,5.43
2022-10-18T08:08:08.078Z,6.35
2022-10-18T08:11:16.324Z,6.50
2022-10-18T08:14:18.535Z,6.97
2022-10-18T08:17:20.662Z,5.32
2022-10-18T08:20:31.210Z,6.75
2022-10-18T08:23:34.535Z,5.53
2022-10-18T08:26:36.707Z,4.82
2022-10-18T08:29:38.920Z,4.05
2022-10-18T08:32:41.150Z,8.15
2022-10-18T08:35:43.375Z,5.87
2022-10-18T08:38:45.562Z,5.35
2022-10-18T08:41:58.727Z,6.57
2022-10-18T08:45:08.250Z,5.95
2022-10-18T08:48:34.368Z,4.03
2022-10-18T08:51:43.439Z,4.80
2022-10-18T08:55:10.311Z,6.20
2022-10-18T08:58:23.541Z,8.68
2022-10-18T09:01:38.647Z,5.25
2022-10-18T09:04:58.545Z,6.65
2022-10-18T09:08:23.057Z,5.40
2022-10-18T09:11:38.247Z,4.53
2022-10-18T09:15:12.625Z,5.50
2022-10-18T09:18:29.783Z,4.68
2022-10-18T09:21:54.567Z,4.85
2022-10-18T09:25:00.357Z,4.37
2022-10-18T09:28:17.883Z,4.70
2022-10-18T09:31:35.533Z,3.47
2022-10-18T09:34:40.234Z,4.68
2022-10-18T09:37:43.659Z,5.20
2022-10-18T09:40:56.324Z,3.60
2022-10-18T09:44:09.391Z,3.87
2022-10-18T09:47:22.756Z,4.00
2022-10-18T09:50:32.970Z,7.30
2022-10-18T09:54:12.746Z,5.37
2022-10-18T09:57:37.571Z,4.22
2022-10-18T10:00:46.613Z,3.92
2022-10-18T10:03:48.850Z,4.82
2022-10-18T10:06:52.584Z,9.18
2022-10-18T10:10:00.314Z,3.05
2022-10-18T10:13:06.921Z,3.80
2022-10-18T10:16:09.089Z,4.97
2022-10-18T10:19:19.434Z,3.28
2022-10-18T10:22:37.455Z,5.67
2022-10-18T10:25:41.172Z,5.05
2022-10-18T10:28:49.023Z,3.22
2022-10-18T10:32:15.081Z,4.03
2022-10-18T10:39:03.533Z,3.40
2022-10-18T10:42:07.944Z,3.37
2022-10-18T10:45:13.099Z,4.28
2022-10-18T10:48:16.988Z,3.65
2022-10-18T10:51:32.188Z,3.58
2022-10-18T10:54:38.782Z,4.70
2022-10-18T10:57:44.219Z,3.03
2022-10-18T11:00:46.378Z,3.95
2022-10-18T11:03:54.056Z,3.45
2022-10-18T11:07:15.175Z,3.22
2022-10-18T11:10:19.876Z,8.73
2022-10-18T11:13:41.717Z,2.87
2022-10-18T11:17:08.522Z,3.87
2022-10-18T11:20:16.728Z,8.88
2022-10-18T11:23:19.561Z,3.55
2022-10-18T11:26:40.962Z,10.30
2022-10-18T11:29:48.611Z,5.78
2022-10-18T11:33:05.024Z,3.80
2022-10-18T11:36:20.810Z,3.20
2022-10-18T11:39:38.035Z,4.03
2022-10-18T11:43:03.161Z,6.82
2022-10-18T11:46:34.256Z,4.32
2022-10-18T11:49:45.633Z,2.95
2022-10-18T11:53:15.679Z,3.08
2022-10-18T11:56:33.299Z,5.12
2022-10-18T12:00:01.737Z,2.60
2022-10-18T12:03:45.592Z,5.12
2022-10-18T12:06:50.664Z,5.62
2022-10-18T12:09:55.049Z,10.48
2022-10-18T12:13:02.143Z,3.12
2022-10-18T12:16:05.366Z,3.83
2022-10-18T12:19:14.785Z,10.10
2022-10-18T12:22:24.266Z,4.03
2022-10-18T12:25:28.617Z,4.07
2022-10-18T12:28:34.069Z,6.07
2022-10-18T12:31:59.683Z,3.85
2022-10-18T12:35:06.409Z,3.70
2022-10-18T12:38:22.309Z,3.87
2022-10-18T12:41:30.512Z,8.32
2022-10-18T12:44:34.861Z,3.12
2022-10-18T12:47:37.955Z,5.10
2022-10-18T12:50:42.709Z,4.05
2022-10-18T12:53:51.394Z,4.25
2022-10-18T12:56:53.533Z,3.42
2022-10-18T12:59:55.667Z,3.17
2022-10-18T13:03:27.066Z,7.00
2022-10-18T13:06:58.034Z,4.97
2022-10-18T13:10:12.898Z,5.43
2022-10-18T13:13:38.714Z,3.65
2022-10-18T13:17:06.952Z,5.60
2022-10-18T13:20:25.620Z,4.80
2022-10-18T13:23:37.049Z,5.82
2022-10-18T13:26:59.063Z,3.10
2022-10-18T13:30:30.808Z,3.58
2022-10-18T13:33:39.275Z,3.42
2022-10-18T13:36:42.302Z,4.15
2022-10-18T13:39:44.949Z,3.10
2022-10-18T13:42:47.099Z,2.30
2022-10-18T13:45:56.267Z,3.85
2022-10-18T13:49:29.349Z,2.40
2022-10-18T13:52:31.818Z,2.60
2022-10-18T13:55:56.017Z,5.70
2022-10-18T13:59:14.959Z,2.95
2022-10-18T14:02:51.011Z,2.42
2022-10-18T14:06:00.432Z,2.67
2022-10-18T14:09:14.266Z,2.95
2022-10-18T14:12:36.952Z,3.08
2022-10-18T14:18:42.673Z,2.55
2022-10-18T14:21:51.353Z,3.00
2022-10-18T14:24:56.022Z,5.22
2022-10-18T14:28:15.556Z,2.50
2022-10-18T14:31:19.843Z,2.10
2022-10-18T14:34:22.312Z,4.10
2022-10-18T14:37:29.300Z,2.08
2022-10-18T14:40:39.869Z,2.50
2022-10-18T14:43:42.840Z,9.50
2022-10-18T14:46:50.625Z,2.37
2022-10-18T14:49:57.844Z,3.53
2022-10-18T14:53:06.013Z,2.47
2022-10-18T14:56:21.291Z,3.58
2022-10-18T14:59:26.036Z,6.62
2022-10-18T15:02:29.737Z,7.60
2022-10-18T15:05:32.585Z,2.20
2022-10-18T15:08:44.278Z,4.85
2022-10-18T15:11:47.092Z,6.57
2022-10-18T15:14:50.224Z,3.70
2022-10-18T15:17:52.548Z,4.10
2022-10-18T15:21:17.696Z,3.55
2022-10-18T15:24:21.313Z,4.37
2022-10-18T15:27:30.208Z,5.95
2022-10-18T15:30:42.696Z,4.20
2022-10-18T15:33:44.838Z,3.25
2022-10-18T15:36:48.401Z,8.23
2022-10-18T15:40:39.946Z,10.82
2022-10-18T15:46:44.095Z,4.47
2022-10-18T15:49:46.549Z,8.40
2022-10-18T15:52:48.724Z,4.53
2022-10-18T15:56:03.141Z,6.43
2022-10-18T15:59:21.985Z,5.47
2022-10-18T16:02:25.268Z,5.78
2022-10-18T16:05:27.874Z,4.78
2022-10-18T16:08:32.019Z,9.00
2022-10-18T16:11:34.150Z,17.98
2022-10-18T16:14:36.298Z,6.43
2022-10-18T16:17:38.470Z,9.70
2022-10-18T16:20:40.626Z,9.25
2022-10-18T16:23:42.781Z,7.20
2022-10-18T16:26:45.022Z,15.20
2022-10-18T16:29:47.160Z,11.07
2022-10-18T16:32:49.317Z,7.82
2022-10-18T16:35:52.256Z,13.57
2022-10-18T16:38:55.416Z,17.25
2022-10-18T16:41:57.578Z,17.55
2022-10-18T16:44:59.728Z,23.70
2022-10-18T16:48:01.926Z,21.42
2022-10-18T16:51:04.184Z,16.92
2022-10-18T16:54:06.333Z,27.90
2022-10-18T16:57:09.634Z,72.45
2022-10-18T17:00:20.990Z,87.20
2022-10-18T17:06:28.102Z,48.60
2022-10-18T17:09:30.270Z,32.85
2022-10-18T17:12:32.678Z,34.40
2022-10-18T17:15:35.262Z,18.23
2022-10-18T17:18:37.472Z,27.62
2022-10-18T17:21:39.676Z,26.60
2022-10-18T17:24:41.861Z,48.78
2022-10-18T17:27:44.439Z,33.50
2022-10-18T17:30:47.241Z,39.75
2022-10-18T17:33:49.614Z,42.40
2022-10-18T17:36:51.783Z,27.85
2022-10-18T17:39:54.041Z,33.42
2022-10-18T17:42:56.425Z,27.48
2022-10-18T17:45:58.728Z,29.40
2022-10-18T17:49:00.907Z,24.00
2022-10-18T17:52:06.883Z,22.40
2022-10-18T17:55:10.066Z,22.37
2022-10-18T17:58:12.213Z,30.73
2022-10-18T18:01:19.025Z,35.17
2022-10-18T18:04:21.227Z,31.58
2022-10-18T18:07:23.409Z,35.28
2022-10-18T18:10:25.666Z,38.05
2022-10-18T18:13:27.818Z,42.25
2022-10-18T18:16:30.282Z,47.53
2022-10-18T18:19:32.510Z,31.30
2022-10-18T18:22:37.001Z,34.10
2022-10-18T18:25:42.421Z,31.15
2022-10-18T18:28:45.094Z,27.52
2022-10-18T18:31:47.638Z,37.03
2022-10-18T18:34:49.816Z,28.15
2022-10-18T18:37:52.105Z,47.97
2022-10-18T18:41:04.532Z,46.08
2022-10-18T18:44:06.773Z,41.90
2022-10-18T18:47:13.150Z,29.83
2022-10-18T18:50:15.692Z,44.83
2022-10-18T18:53:18.669Z,27.37
2022-10-18T18:56:23.762Z,29.42
2022-10-18T18:59:26.269Z,32.42
2022-10-18T19:02:28.553Z,18.00
2022-10-18T19:05:32.018Z,15.77
2022-10-18T19:08:38.587Z,24.25
2022-10-18T19:11:40.774Z,27.33
2022-10-18T19:14:43.210Z,25.85
2022-10-18T19:17:45.754Z,19.48
2022-10-18T19:20:47.943Z,20.30
2022-10-18T19:23:50.371Z,20.88
2022-10-18T19:26:57.703Z,22.10
2022-10-18T19:29:59.996Z,17.85
2022-10-18T19:33:04.698Z,16.33
2022-10-18T19:36:07.547Z,11.15
2022-10-18T19:39:18.223Z,12.50
2022-10-18T19:42:26.090Z,25.55
2022-10-18T19:45:29.863Z,18.80
2022-10-18T19:48:31.977Z,13.10
2022-10-18T19:51:34.187Z,16.17
2022-10-18T19:54:36.349Z,12.50
2022-10-18T19:57:38.478Z,17.05
2022-10-18T20:00:40.631Z,22.80
2022-10-18T20:03:43.019Z,22.75
2022-10-18T20:06:45.445Z,15.27
2022-10-18T20:09:48.102Z,13.75
2022-10-18T20:12:50.229Z,17.33
2022-10-18T20:15:53.629Z,10.77
2022-10-18T20:18:57.941Z,10.77
2022-10-18T20:22:00.097Z,10.02
2022-10-18T20:25:02.216Z,13.27
2022-10-18T20:28:05.092Z,19.33
2022-10-18T20:31:08.558Z,21.42
2022-10-18T20:34:12.119Z,15.75
2022-10-18T20:37:14.665Z,18.65
2022-10-18T20:40:16.870Z,16.08
2022-10-18T20:43:19.036Z,13.02
2022-10-18T20:46:21.956Z,12.20
2022-10-18T20:49:24.185Z,15.77
2022-10-18T20:52:26.439Z,12.43
2022-10-18T20:55:29.227Z,12.50
2022-10-18T20:58:31.494Z,16.05
2022-10-18T21:01:34.516Z,15.55
2022-10-18T21:04:38.837Z,17.20
2022-10-18T21:07:43.628Z,12.95
2022-10-18T21:10:45.754Z,17.27
2022-10-18T21:13:55.799Z,10.73
2022-10-18T21:16:57.907Z,10.18
2022-10-18T21:20:01.002Z,11.10
2022-10-18T21:23:03.179Z,14.77
2022-10-18T21:26:06.167Z,21.25
2022-10-18T21:29:08.576Z,14.40
2022-10-18T21:32:10.772Z,14.77
2022-10-18T21:35:12.928Z,14.15
2022-10-18T21:38:15.042Z,11.93
2022-10-18T21:41:18.733Z,8.82
2022-10-18T21:44:21.011Z,11.32
2022-10-18T21:47:23.147Z,7.37
2022-10-18T21:50:25.285Z,9.05
2022-10-18T21:53:27.641Z,9.80
2022-10-18T21:56:31.876Z,9.52
2022-10-18T21:59:34.049Z,8.32
2022-10-18T22:02:36.266Z,8.85
2022-10-18T22:05:38.650Z,11.98
2022-10-18T22:08:42.934Z,24.33
2022-10-18T22:11:49.852Z,47.58
2022-10-18T22:14:51.979Z,24.27
2022-10-18T22:17:54.106Z,24.65
2022-10-18T22:21:00.619Z,26.98
2022-10-18T22:24:07.668Z,18.35
2022-10-18T22:27:09.834Z,28.73
2022-10-18T22:30:11.944Z,16.80
2022-10-18T22:33:14.063Z,19.20
2022-10-18T22:36:16.189Z,17.73
2022-10-18T22:39:18.436Z,14.70
2022-10-18T22:42:20.534Z,18.15
2022-10-18T22:45:22.705Z,11.95
2022-10-18T22:48:24.841Z,12.07
2022-10-18T22:51:27.340Z,9.63
2022-10-18T22:54:29.559Z,9.85
2022-10-18T22:57:31.768Z,9.35
2022-10-18T23:00:33.937Z,12.68
2022-10-18T23:03:36.742Z,9.10
2022-10-18T23:06:40.030Z,10.20
2022-10-18T23:09:42.167Z,12.25
2022-10-18T23:12:44.334Z,10.23
2022-10-18T23:15:46.459Z,9.43
2022-10-18T23:18:50.976Z,7.78
2022-10-18T23:21:53.107Z,8.30
2022-10-18T23:24:55.226Z,7.43
2022-10-18T23:27:57.645Z,8.68
2022-10-18T23:30:59.779Z,7.47
2022-10-18T23:34:04.008Z,10.32
2022-10-18T23:37:06.138Z,13.52
2022-10-18T23:40:09.182Z,13.20
2022-10-18T23:43:11.284Z,13.93
2022-10-18T23:46:14.859Z,16.23
2022-10-18T23:49:16.977Z,13.82
2022-10-18T23:52:19.090Z,15.05
2022-10-18T23:55:21.195Z,16.80
2022-10-18T23:58:24.154Z,8.60
